Time;durP1;ratioP1;P1;durP2;ratioP2;P2;SDS_P1;SDS_P2;PMS_P1;PMS_P2;Temp;Humidity;BMP_temperature;BMP_pressure;BME280_temperature;BME280_humidity;BME280_pressure;Samples;Min_cycle;Max_cycle;Signal;HPM_P1;HPM_P2
2022/07/26 00:00:18;;;;;;;9.80;2.50;;;;;;;;;;5052021;28;20189;-65
2022/07/26 00:02:44;;;;;;;18.20;2.78;;;;;;;;;;5048578;28;20189;-65
2022/07/26 00:05:10;;;;;;;8.63;2.65;;;;;;;;;;5050849;28;20193;-65
2022/07/26 00:07:35;;;;;;;18.80;2.75;;;;;;;;;;5056281;28;20536;-65
2022/07/26 00:10:01;;;;;;;10.27;2.10;;;;;;;;;;5056135;28;20227;-65
2022/07/26 00:12:26;;;;;;;14.60;4.25;;;;;;;;;;5058591;28;20269;-65
2022/07/26 00:14:52;;;;;;;11.27;2.33;;;;;;;;;;5061689;28;20185;-65
2022/07/26 00:17:17;;;;;;;10.50;2.30;;;;;;;;;;5050194;28;20275;-65
2022/07/26 00:19:43;;;;;;;11.05;2.33;;;;;;;;;;5057447;28;20186;-65
2022/07/26 00:24:52;;;;;;;15.77;2.90;;;;;;;;;;5059549;28;20726;-64
2022/07/26 00:27:18;;;;;;;10.77;2.40;;;;;;;;;;5057206;28;20173;-65
2022/07/26 00:29:43;;;;;;;11.73;2.38;;;;;;;;;;5048205;28;20766;-65
2022/07/26 00:32:08;;;;;;;14.60;2.30;;;;;;;;;;5053381;28;20227;-65
2022/07/26 00:34:34;;;;;;;10.95;2.40;;;;;;;;;;5055501;28;20553;-65
2022/07/26 00:36:59;;;;;;;12.25;2.45;;;;;;;;;;5050715;28;20184;-65
2022/07/26 00:39:25;;;;;;;13.32;2.80;;;;;;;;;;5049480;28;20181;-65
2022/07/26 00:41:50;;;;;;;11.50;2.88;;;;;;;;;;5052479;28;20613;-65
2022/07/26 00:44:16;;;;;;;15.05;2.30;;;;;;;;;;5060026;28;20176;-65
2022/07/26 00:46:42;;;;;;;11.70;2.60;;;;;;;;;;5061091;28;20260;-65
2022/07/26 00:49:08;;;;;;;11.52;3.17;;;;;;;;;;5052916;28;20699;-64
2022/07/26 00:51:34;;;;;;;11.88;2.13;;;;;;;;;;5064534;28;20189;-64
2022/07/26 00:53:59;;;;;;;10.65;2.30;;;;;;;;;;5058677;28;20191;-65
2022/07/26 00:56:25;;;;;;;12.90;2.75;;;;;;;;;;5057594;28;20181;-65
2022/07/26 00:58:50;;;;;;;9.80;2.40;;;;;;;;;;5056419;28;20192;-65
2022/07/26 01:01:16;;;;;;;8.80;2.17;;;;;;;;;;5061397;28;20541;-65
2022/07/26 01:03:41;;;;;;;15.02;2.80;;;;;;;;;;5054853;28;20189;-65
2022/07/26 01:06:07;;;;;;;14.60;3.38;;;;;;;;;;5056321;28;20649;-65
2022/07/26 01:08:33;;;;;;;14.88;3.30;;;;;;;;;;5050166;28;20213;-65
2022/07/26 01:10:58;;;;;;;16.20;2.88;;;;;;;;;;5049775;28;20177;-65
2022/07/26 01:13:23;;;;;;;14.40;3.38;;;;;;;;;;5060398;28;20276;-64
2022/07/26 01:15:49;;;;;;;13.95;2.33;;;;;;;;;;5057377;28;20260;-64
2022/07/26 01:18:14;;;;;;;19.00;3.10;;;;;;;;;;5061392;28;20289;-64
2022/07/26 01:20:42;;;;;;;10.80;2.38;;;;;;;;;;5064582;28;20188;-65
2022/07/26 01:23:07;;;;;;;18.83;2.85;;;;;;;;;;5063013;28;20212;-62
2022/07/26 01:25:36;;;;;;;16.23;3.42;;;;;;;;;;5061783;28;20271;-65
2022/07/26 01:28:02;;;;;;;11.55;2.72;;;;;;;;;;5058972;28;20200;-65
2022/07/26 01:30:28;;;;;;;18.48;2.90;;;;;;;;;;5047537;28;20181;-65
2022/07/26 01:32:53;;;;;;;16.23;3.00;;;;;;;;;;5052652;28;20208;-65
2022/07/26 01:35:19;;;;;;;13.32;2.58;;;;;;;;;;5055115;28;20184;-65
2022/07/26 01:37:44;;;;;;;15.98;2.80;;;;;;;;;;5050169;28;20273;-63
2022/07/26 01:40:10;;;;;;;15.10;2.90;;;;;;;;;;5056761;28;20238;-65
2022/07/26 01:42:39;;;;;;;9.52;2.63;;;;;;;;;;5065376;28;20199;-63
2022/07/26 01:45:09;;;;;;;17.23;4.25;;;;;;;;;;5057436;28;20185;-63
2022/07/26 01:47:34;;;;;;;13.63;2.75;;;;;;;;;;5050470;28;20284;-63
2022/07/26 01:50:00;;;;;;;16.20;2.70;;;;;;;;;;5047354;28;20264;-64
2022/07/26 01:52:26;;;;;;;15.70;3.55;;;;;;;;;;5058940;28;20597;-63
2022/07/26 01:54:51;;;;;;;17.98;2.67;;;;;;;;;;5047896;28;20196;-64
2022/07/26 01:57:17;;;;;;;15.57;3.88;;;;;;;;;;5052074;28;20182;-64
2022/07/26 01:59:42;;;;;;;19.90;3.88;;;;;;;;;;5058524;28;20258;-64
2022/07/26 02:02:07;;;;;;;17.63;3.75;;;;;;;;;;5052516;28;20185;-64
2022/07/26 02:07:17;;;;;;;18.63;3.55;;;;;;;;;;5048679;28;20216;-63
2022/07/26 02:09:42;;;;;;;18.88;3.00;;;;;;;;;;5061013;28;20193;-63
2022/07/26 02:12:07;;;;;;;17.38;2.85;;;;;;;;;;5052617;28;20299;-63
2022/07/26 02:14:33;;;;;;;16.00;2.85;;;;;;;;;;5053875;28;20204;-64
2022/07/26 02:16:58;;;;;;;21.77;3.85;;;;;;;;;;5055906;28;20184;-64
2022/07/26 02:19:27;;;;;;;19.00;3.13;;;;;;;;;;5054233;28;20610;-64
2022/07/26 02:21:53;;;;;;;20.27;3.20;;;;;;;;;;5055395;28;20177;-64
2022/07/26 02:24:19;;;;;;;17.30;3.65;;;;;;;;;;5058647;28;20588;-64
2022/07/26 02:26:44;;;;;;;18.75;3.95;;;;;;;;;;5059795;28;20225;-64
2022/07/26 02:29:09;;;;;;;13.52;3.35;;;;;;;;;;5051023;28;20209;-64
2022/07/26 02:31:35;;;;;;;25.30;4.43;;;;;;;;;;5052860;28;20632;-65
2022/07/26 02:34:00;;;;;;;16.48;3.45;;;;;;;;;;5049416;28;20190;-64
2022/07/26 02:36:25;;;;;;;16.20;3.40;;;;;;;;;;5065135;28;20486;-64
2022/07/26 02:38:51;;;;;;;17.67;3.30;;;;;;;;;;5056843;28;20305;-64
2022/07/26 02:41:16;;;;;;;16.95;3.47;;;;;;;;;;5061089;28;20187;-63
2022/07/26 02:43:42;;;;;;;16.77;3.03;;;;;;;;;;5058402;28;20293;-65
2022/07/26 02:46:07;;;;;;;18.80;3.75;;;;;;;;;;5057929;28;20559;-64
2022/07/26 02:48:32;;;;;;;10.77;3.00;;;;;;;;;;5058630;28;20328;-64
2022/07/26 02:50:58;;;;;;;20.25;3.03;;;;;;;;;;5058688;28;20185;-64
2022/07/26 02:53:23;;;;;;;15.23;3.30;;;;;;;;;;5063567;28;20187;-64
2022/07/26 02:55:49;;;;;;;11.45;2.72;;;;;;;;;;5063711;28;20193;-64
2022/07/26 02:58:14;;;;;;;13.68;3.40;;;;;;;;;;5060995;28;20184;-64
2022/07/26 03:00:40;;;;;;;20.33;3.60;;;;;;;;;;5054685;28;20189;-64
2022/07/26 03:03:05;;;;;;;24.65;3.92;;;;;;;;;;5059085;28;20227;-64
2022/07/26 03:05:30;;;;;;;11.77;3.30;;;;;;;;;;5060242;28;20293;-64
2022/07/26 03:07:56;;;;;;;18.80;3.35;;;;;;;;;;5053167;28;20212;-64
2022/07/26 03:10:21;;;;;;;18.42;3.80;;;;;;;;;;5050179;28;20185;-64
2022/07/26 03:12:46;;;;;;;14.90;3.63;;;;;;;;;;5054295;28;20239;-64
2022/07/26 03:15:12;;;;;;;16.83;3.60;;;;;;;;;;5056526;28;20190;-64
2022/07/26 03:17:37;;;;;;;14.27;3.90;;;;;;;;;;5050973;28;20177;-63
2022/07/26 03:20:03;;;;;;;19.73;4.05;;;;;;;;;;5068211;28;20275;-64
2022/07/26 03:22:29;;;;;;;17.92;4.53;;;;;;;;;;5048625;28;20291;-67
2022/07/26 03:24:54;;;;;;;18.48;3.90;;;;;;;;;;5064085;28;20765;-64
2022/07/26 03:27:19;;;;;;;18.90;4.70;;;;;;;;;;5059979;28;20188;-64
2022/07/26 03:29:45;;;;;;;24.08;4.82;;;;;;;;;;5049214;28;20785;-64
2022/07/26 03:32:10;;;;;;;19.30;4.05;;;;;;;;;;5059311;28;20209;-64
2022/07/26 03:34:36;;;;;;;20.95;4.22;;;;;;;;;;5061315;28;20234;-64
2022/07/26 03:37:01;;;;;;;21.70;4.28;;;;;;;;;;5047986;28;20653;-64
2022/07/26 03:39:27;;;;;;;12.88;3.53;;;;;;;;;;5063320;28;20259;-63
2022/07/26 03:41:52;;;;;;;15.40;4.10;;;;;;;;;;5055477;28;20340;-64
2022/07/26 03:44:17;;;;;;;20.45;5.40;;;;;;;;;;5052343;28;20193;-63
2022/07/26 03:46:43;;;;;;;15.88;4.22;;;;;;;;;;5065364;28;20181;-64
2022/07/26 03:49:08;;;;;;;13.07;4.05;;;;;;;;;;5058861;28;20225;-64
2022/07/26 03:51:33;;;;;;;20.98;4.72;;;;;;;;;;5059258;28;20643;-64
2022/07/26 03:53:59;;;;;;;18.30;3.75;;;;;;;;;;5054444;28;20177;-64
2022/07/26 03:56:27;;;;;;;18.80;4.30;;;;;;;;;;5058846;28;20193;-64
2022/07/26 03:58:53;;;;;;;18.75;4.65;;;;;;;;;;5059384;28;20197;-64
2022/07/26 04:01:18;;;;;;;17.52;3.88;;;;;;;;;;5058816;28;20294;-63
2022/07/26 04:03:44;;;;;;;14.30;3.60;;;;;;;;;;5053911;28;20196;-63
2022/07/26 04:06:09;;;;;;;14.18;3.65;;;;;;;;;;5065721;28;20672;-63
2022/07/26 04:08:35;;;;;;;14.75;3.75;;;;;;;;;;5066975;28;20212;-64
2022/07/26 04:11:01;;;;;;;19.65;4.32;;;;;;;;;;5050086;28;20185;-64
2022/07/26 04:13:26;;;;;;;13.68;3.85;;;;;;;;;;5052173;28;20291;-64
2022/07/26 04:15:52;;;;;;;19.88;4.38;;;;;;;;;;5066750;28;20242;-64
2022/07/26 04:18:17;;;;;;;16.67;4.00;;;;;;;;;;5059944;28;20187;-64
2022/07/26 04:20:43;;;;;;;16.95;4.10;;;;;;;;;;5058472;28;20605;-64
2022/07/26 04:23:08;;;;;;;12.27;3.45;;;;;;;;;;5050304;28;20181;-65
2022/07/26 04:25:34;;;;;;;16.17;4.28;;;;;;;;;;5053936;28;20225;-65
2022/07/26 04:28:00;;;;;;;19.63;4.63;;;;;;;;;;5049977;28;20313;-65
2022/07/26 04:30:25;;;;;;;13.70;3.40;;;;;;;;;;5056009;28;20185;-65
2022/07/26 04:32:51;;;;;;;13.63;3.35;;;;;;;;;;5058595;28;20278;-65
2022/07/26 04:35:17;;;;;;;14.63;3.65;;;;;;;;;;5053177;28;20188;-65
2022/07/26 04:37:43;;;;;;;22.83;4.40;;;;;;;;;;5051260;28;20184;-64
2022/07/26 04:40:14;;;;;;;17.35;4.30;;;;;;;;;;5050084;28;20189;-64
2022/07/26 04:42:39;;;;;;;13.70;3.47;;;;;;;;;;5053799;28;20193;-64
2022/07/26 04:45:05;;;;;;;11.13;3.38;;;;;;;;;;5056417;28;20183;-64
2022/07/26 04:47:31;;;;;;;13.30;3.80;;;;;;;;;;5060429;28;20546;-64
2022/07/26 04:49:56;;;;;;;14.10;3.60;;;;;;;;;;5050129;28;20212;-64
2022/07/26 04:52:21;;;;;;;11.43;3.25;;;;;;;;;;5051831;28;20268;-66
2022/07/26 04:54:47;;;;;;;13.25;3.60;;;;;;;;;;5049913;28;20342;-66
2022/07/26 04:57:12;;;;;;;16.88;4.05;;;;;;;;;;5052450;28;20181;-65
2022/07/26 04:59:37;;;;;;;11.63;3.60;;;;;;;;;;5052880;28;20193;-65
2022/07/26 05:02:03;;;;;;;11.40;3.42;;;;;;;;;;5055233;28;20187;-65
2022/07/26 05:04:28;;;;;;;12.18;3.00;;;;;;;;;;5051249;28;20184;-66
2022/07/26 05:06:53;;;;;;;12.90;3.40;;;;;;;;;;5052376;28;20189;-65
2022/07/26 05:09:19;;;;;;;11.32;2.97;;;;;;;;;;5052321;28;20194;-64
2022/07/26 05:11:44;;;;;;;12.82;3.50;;;;;;;;;;5053737;28;20927;-64
2022/07/26 05:14:09;;;;;;;10.55;3.38;;;;;;;;;;5051225;28;20552;-64
2022/07/26 05:16:35;;;;;;;9.27;3.22;;;;;;;;;;5050740;28;20193;-65
2022/07/26 05:19:00;;;;;;;11.77;3.60;;;;;;;;;;5057741;28;20194;-65
2022/07/26 05:21:26;;;;;;;11.57;3.50;;;;;;;;;;5054384;28;20263;-65
2022/07/26 05:23:52;;;;;;;11.75;3.50;;;;;;;;;;5057681;28;20727;-66
2022/07/26 05:26:18;;;;;;;12.77;3.80;;;;;;;;;;5053322;28;20185;-65
2022/07/26 05:28:43;;;;;;;12.23;2.90;;;;;;;;;;5049215;28;20758;-64
2022/07/26 05:31:08;;;;;;;10.55;3.08;;;;;;;;;;5049544;28;20213;-65
2022/07/26 05:33:34;;;;;;;9.95;2.90;;;;;;;;;;5050933;28;20196;-65
2022/07/26 05:35:59;;;;;;;7.70;2.80;;;;;;;;;;5065336;28;20218;-65
2022/07/26 05:38:24;;;;;;;8.57;3.03;;;;;;;;;;5061047;28;20180;-66
2022/07/26 05:40:50;;;;;;;7.28;2.42;;;;;;;;;;5057954;28;20196;-65
2022/07/26 05:43:15;;;;;;;8.15;2.33;;;;;;;;;;5059965;28;20188;-65
2022/07/26 05:45:41;;;;;;;6.63;2.20;;;;;;;;;;5048341;28;20265;-65
2022/07/26 05:48:06;;;;;;;7.65;2.15;;;;;;;;;;5050643;28;20575;-64
2022/07/26 05:50:31;;;;;;;9.68;2.20;;;;;;;;;;5046272;28;20185;-64
2022/07/26 05:52:57;;;;;;;7.65;2.22;;;;;;;;;;5055520;28;20185;-65
2022/07/26 05:55:22;;;;;;;5.43;2.08;;;;;;;;;;5054047;28;20185;-65
2022/07/26 05:57:48;;;;;;;9.63;2.35;;;;;;;;;;5052308;28;20196;-66
2022/07/26 06:00:14;;;;;;;9.35;1.98;;;;;;;;;;5056560;28;20200;-65
2022/07/26 06:02:40;;;;;;;7.03;1.63;;;;;;;;;;5057528;28;20236;-65
2022/07/26 06:05:05;;;;;;;4.70;1.73;;;;;;;;;;4355003;28;9999928;-65
2022/07/26 06:07:31;;;;;;;8.30;1.63;;;;;;;;;;5063157;28;20190;-65
2022/07/26 06:09:57;;;;;;;5.45;1.60;;;;;;;;;;5063300;28;20200;-65
2022/07/26 06:12:22;;;;;;;6.32;1.67;;;;;;;;;;5054895;28;20302;-67
2022/07/26 06:14:48;;;;;;;6.03;1.48;;;;;;;;;;5059787;28;20716;-66
2022/07/26 06:17:13;;;;;;;6.32;1.63;;;;;;;;;;5053070;28;20267;-66
2022/07/26 06:19:38;;;;;;;6.78;1.50;;;;;;;;;;5057048;28;20674;-66
2022/07/26 06:22:04;;;;;;;6.05;1.40;;;;;;;;;;5053466;28;20194;-66
2022/07/26 06:24:29;;;;;;;7.25;1.17;;;;;;;;;;5048844;28;20229;-66
2022/07/26 06:26:55;;;;;;;5.22;1.58;;;;;;;;;;5052004;28;20512;-66
2022/07/26 06:29:21;;;;;;;7.88;1.30;;;;;;;;;;5051745;28;20209;-65
2022/07/26 06:31:46;;;;;;;4.35;1.42;;;;;;;;;;5047952;28;20205;-66
2022/07/26 06:34:12;;;;;;;3.67;1.38;;;;;;;;;;5054210;28;20177;-65
2022/07/26 06:36:37;;;;;;;5.35;1.67;;;;;;;;;;5052364;28;20169;-66
2022/07/26 06:39:03;;;;;;;7.30;1.55;;;;;;;;;;5050221;28;20288;-66
2022/07/26 06:41:28;;;;;;;6.38;1.52;;;;;;;;;;5055450;28;20192;-67
2022/07/26 06:43:54;;;;;;;3.75;1.30;;;;;;;;;;5055844;28;20185;-66
2022/07/26 06:46:20;;;;;;;10.55;2.25;;;;;;;;;;5051520;28;20217;-67
2022/07/26 06:48:46;;;;;;;4.90;1.42;;;;;;;;;;5052772;28;20216;-66
2022/07/26 06:51:11;;;;;;;7.18;1.95;;;;;;;;;;5051718;28;20177;-67
2022/07/26 06:53:37;;;;;;;9.35;1.85;;;;;;;;;;5059501;28;20182;-66
2022/07/26 06:56:02;;;;;;;7.47;1.80;;;;;;;;;;5054159;28;20637;-67
2022/07/26 06:58:27;;;;;;;3.47;1.25;;;;;;;;;;5052932;28;20177;-67
2022/07/26 07:00:54;;;;;;;5.35;1.23;;;;;;;;;;5052066;28;20272;-67
2022/07/26 07:03:19;;;;;;;4.40;1.45;;;;;;;;;;5058325;28;20235;-67
2022/07/26 07:05:45;;;;;;;8.15;1.30;;;;;;;;;;5056910;28;20585;-67
2022/07/26 07:08:11;;;;;;;5.78;1.00;;;;;;;;;;5056443;28;20196;-67
2022/07/26 07:10:36;;;;;;;3.38;1.15;;;;;;;;;;5058503;28;20273;-67
2022/07/26 07:13:01;;;;;;;4.18;1.02;;;;;;;;;;5054322;28;20650;-66
2022/07/26 07:15:27;;;;;;;4.50;1.00;;;;;;;;;;5056228;28;20188;-66
2022/07/26 07:17:52;;;;;;;6.75;1.45;;;;;;;;;;5056130;28;20189;-67
2022/07/26 07:20:17;;;;;;;5.57;1.10;;;;;;;;;;5053453;28;20250;-68
2022/07/26 07:22:43;;;;;;;6.60;0.93;;;;;;;;;;5052492;28;20192;-67
2022/07/26 07:25:08;;;;;;;4.47;1.27;;;;;;;;;;5050513;28;20268;-69
2022/07/26 07:27:34;;;;;;;6.13;1.10;;;;;;;;;;5057122;28;20196;-69
2022/07/26 07:29:59;;;;;;;3.22;0.93;;;;;;;;;;5063679;28;20215;-68
2022/07/26 07:32:24;;;;;;;3.05;0.70;;;;;;;;;;5067788;28;20238;-73
2022/07/26 07:34:49;;;;;;;4.70;0.80;;;;;;;;;;5060707;28;20230;-70
2022/07/26 07:37:16;;;;;;;1.95;0.43;;;;;;;;;;5060960;28;20185;-68
2022/07/26 07:39:42;;;;;;;6.68;0.60;;;;;;;;;;5055782;28;20177;-67
2022/07/26 07:42:07;;;;;;;5.20;0.82;;;;;;;;;;5059746;28;20669;-70
2022/07/26 07:44:32;;;;;;;2.97;0.95;;;;;;;;;;5052272;28;20189;-68
2022/07/26 07:46:58;;;;;;;3.88;0.80;;;;;;;;;;5054617;28;20176;-71
2022/07/26 07:49:23;;;;;;;6.00;0.90;;;;;;;;;;5059052;28;20197;-68
2022/07/26 07:51:48;;;;;;;6.82;1.10;;;;;;;;;;5049823;28;20186;-68
2022/07/26 07:54:14;;;;;;;7.18;1.40;;;;;;;;;;5054411;28;20189;-66
2022/07/26 07:56:43;;;;;;;7.13;1.00;;;;;;;;;;5056712;28;20177;-67
2022/07/26 07:59:09;;;;;;;4.85;0.73;;;;;;;;;;5052877;28;20564;-69
2022/07/26 08:01:34;;;;;;;4.90;0.70;;;;;;;;;;5052990;28;20185;-69
2022/07/26 08:04:00;;;;;;;5.65;0.82;;;;;;;;;;5054746;28;20629;-69
2022/07/26 08:06:25;;;;;;;3.78;0.77;;;;;;;;;;5059593;28;20601;-69
2022/07/26 08:08:50;;;;;;;4.00;0.65;;;;;;;;;;5054484;28;20563;-67
2022/07/26 08:11:16;;;;;;;4.63;0.80;;;;;;;;;;5051979;28;20588;-68
2022/07/26 08:13:41;;;;;;;4.13;0.60;;;;;;;;;;5059025;28;20181;-68
2022/07/26 08:16:08;;;;;;;3.88;0.77;;;;;;;;;;5053577;28;20204;-74
2022/07/26 08:18:33;;;;;;;5.03;0.82;;;;;;;;;;5051771;28;20189;-69
2022/07/26 08:20:59;;;;;;;2.00;0.70;;;;;;;;;;5052222;28;20188;-71
2022/07/26 08:23:24;;;;;;;3.35;0.65;;;;;;;;;;5051049;28;20185;-71
2022/07/26 08:25:50;;;;;;;3.00;0.77;;;;;;;;;;5051195;28;20205;-69
2022/07/26 08:28:16;;;;;;;1.92;0.50;;;;;;;;;;5052483;28;20279;-69
2022/07/26 08:30:41;;;;;;;1.85;0.50;;;;;;;;;;5050958;28;20180;-68
2022/07/26 08:33:07;;;;;;;4.80;0.60;;;;;;;;;;5053831;28;20539;-68
2022/07/26 08:35:32;;;;;;;3.00;0.57;;;;;;;;;;5050842;28;20211;-69
2022/07/26 08:37:58;;;;;;;3.55;0.75;;;;;;;;;;5048561;28;20197;-71
2022/07/26 08:40:23;;;;;;;3.70;1.08;;;;;;;;;;5050376;28;20637;-70
2022/07/26 08:42:53;;;;;;;2.78;0.70;;;;;;;;;;5049591;28;20170;-70
2022/07/26 08:45:25;;;;;;;3.75;1.00;;;;;;;;;;5048767;28;20187;-72
2022/07/26 08:47:51;;;;;;;2.25;0.55;;;;;;;;;;5049426;28;20911;-74
2022/07/26 08:50:17;;;;;;;1.98;0.45;;;;;;;;;;5045351;28;20174;-76
2022/07/26 08:52:42;;;;;;;2.97;0.45;;;;;;;;;;5052673;28;20182;-72
2022/07/26 08:55:09;;;;;;;5.93;0.80;;;;;;;;;;5052135;28;20197;-69
2022/07/26 08:57:34;;;;;;;2.42;0.40;;;;;;;;;;5055021;28;20324;-69
2022/07/26 09:00:13;;;;;;;2.50;0.85;;;;;;;;;;5052207;28;20515;-70
2022/07/26 09:02:40;;;;;;;3.45;0.57;;;;;;;;;;5055489;28;20193;-71
2022/07/26 09:05:06;;;;;;;2.35;0.50;;;;;;;;;;5053803;28;20638;-68
2022/07/26 09:07:33;;;;;;;2.13;0.60;;;;;;;;;;5050505;28;20194;-69
2022/07/26 09:10:01;;;;;;;3.50;0.40;;;;;;;;;;5060108;28;20192;-69
2022/07/26 09:12:28;;;;;;;1.95;0.55;;;;;;;;;;5059390;28;20181;-69
2022/07/26 09:14:54;;;;;;;1.15;0.40;;;;;;;;;;5054381;28;20181;-70
2022/07/26 09:17:23;;;;;;;3.35;0.70;;;;;;;;;;5057781;28;20173;-70
2022/07/26 09:20:10;;;;;;;3.30;0.60;;;;;;;;;;5057783;28;20189;-72
2022/07/26 09:23:06;;;;;;;3.17;0.60;;;;;;;;;;5060187;28;20214;-71
2022/07/26 09:25:40;;;;;;;4.50;0.60;;;;;;;;;;5053694;28;20262;-69
2022/07/26 09:28:29;;;;;;;3.40;0.68;;;;;;;;;;5053673;28;20555;-69
2022/07/26 09:31:00;;;;;;;2.58;0.57;;;;;;;;;;5048943;28;20184;-70
2022/07/26 09:33:41;;;;;;;2.28;0.55;;;;;;;;;;5065556;28;20268;-70
2022/07/26 09:36:07;;;;;;;1.90;0.52;;;;;;;;;;5057536;28;20184;-70
2022/07/26 09:38:44;;;;;;;2.20;0.40;;;;;;;;;;5059868;28;20624;-70
2022/07/26 09:41:39;;;;;;;2.13;0.40;;;;;;;;;;5055194;28;20184;-70
2022/07/26 09:44:18;;;;;;;3.90;0.85;;;;;;;;;;5043930;28;20193;-71
2022/07/26 09:46:51;;;;;;;2.95;0.30;;;;;;;;;;5057864;28;20185;-71
2022/07/26 09:49:18;;;;;;;1.98;0.30;;;;;;;;;;5055048;28;20197;-74
2022/07/26 09:51:46;;;;;;;2.63;0.38;;;;;;;;;;5053714;28;20482;-70
2022/07/26 09:54:17;;;;;;;1.98;0.43;;;;;;;;;;5057921;28;20476;-71
2022/07/26 09:56:50;;;;;;;1.52;0.40;;;;;;;;;;5056964;28;20189;-72
2022/07/26 09:59:19;;;;;;;1.95;0.43;;;;;;;;;;5058896;28;20633;-69
2022/07/26 10:01:44;;;;;;;1.20;0.20;;;;;;;;;;5050800;28;20585;-71
2022/07/26 10:04:10;;;;;;;1.83;0.30;;;;;;;;;;5059203;28;20220;-70
2022/07/26 10:06:36;;;;;;;1.27;0.40;;;;;;;;;;5054200;28;20211;-73
2022/07/26 10:09:03;;;;;;;2.67;0.32;;;;;;;;;;5060979;28;20232;-70
2022/07/26 10:11:35;;;;;;;2.83;0.50;;;;;;;;;;5052569;28;20601;-70
2022/07/26 10:14:32;;;;;;;3.45;0.43;;;;;;;;;;5058674;28;20177;-69
2022/07/26 10:17:18;;;;;;;0.95;0.35;;;;;;;;;;5051214;28;20178;-71
2022/07/26 10:19:43;;;;;;;2.50;0.40;;;;;;;;;;5052119;28;20675;-70
2022/07/26 10:22:29;;;;;;;0.82;0.30;;;;;;;;;;5057525;28;20188;-71
2022/07/26 10:24:57;;;;;;;2.58;0.40;;;;;;;;;;5050568;28;20282;-70
2022/07/26 10:27:38;;;;;;;1.60;0.30;;;;;;;;;;5049068;28;20196;-69
2022/07/26 10:30:16;;;;;;;0.43;0.25;;;;;;;;;;5056362;28;20580;-70
2022/07/26 10:32:58;;;;;;;2.00;0.40;;;;;;;;;;5051900;28;20223;-69
2022/07/26 10:35:33;;;;;;;2.45;0.40;;;;;;;;;;5058946;28;20212;-70
2022/07/26 10:38:00;;;;;;;3.83;0.50;;;;;;;;;;5053967;28;20173;-70
2022/07/26 10:40:29;;;;;;;2.00;0.50;;;;;;;;;;5055814;28;20201;-69
2022/07/26 10:43:06;;;;;;;4.28;0.50;;;;;;;;;;5050246;28;20551;-69
2022/07/26 10:45:32;;;;;;;1.63;0.40;;;;;;;;;;5050175;28;20701;-69
2022/07/26 10:48:13;;;;;;;2.25;0.63;;;;;;;;;;5051191;28;20568;-68
2022/07/26 10:50:44;;;;;;;4.25;0.57;;;;;;;;;;5051813;28;20307;-68
2022/07/26 10:53:26;;;;;;;1.98;0.40;;;;;;;;;;5052225;28;20183;-69
2022/07/26 10:55:56;;;;;;;2.85;0.50;;;;;;;;;;5057728;28;20663;-69
2022/07/26 10:58:23;;;;;;;4.35;0.65;;;;;;;;;;5053572;28;20177;-69
2022/07/26 11:01:00;;;;;;;3.20;0.65;;;;;;;;;;5050132;28;20621;-70
2022/07/26 11:03:36;;;;;;;7.35;1.25;;;;;;;;;;5057492;28;20189;-69
2022/07/26 11:06:12;;;;;;;4.95;0.80;;;;;;;;;;5050540;28;20477;-77
2022/07/26 11:08:37;;;;;;;3.67;0.70;;;;;;;;;;5050864;28;20248;-69
2022/07/26 11:11:03;;;;;;;6.90;1.20;;;;;;;;;;5050920;28;20200;-70
2022/07/26 11:13:31;;;;;;;3.53;0.80;;;;;;;;;;5052028;28;20230;-68
2022/07/26 11:16:05;;;;;;;2.97;0.70;;;;;;;;;;5054172;28;20712;-68
2022/07/26 11:18:35;;;;;;;4.38;0.80;;;;;;;;;;5052039;28;20194;-68
2022/07/26 11:21:15;;;;;;;4.55;0.85;;;;;;;;;;5050986;28;20822;-77
2022/07/26 11:23:45;;;;;;;4.95;0.65;;;;;;;;;;4354294;28;10000834;-69
2022/07/26 11:26:22;;;;;;;4.65;0.70;;;;;;;;;;4702364;28;10000700;-69
2022/07/26 11:28:52;;;;;;;4.97;0.82;;;;;;;;;;5059327;28;20323;-70
2022/07/26 11:31:20;;;;;;;3.20;0.60;;;;;;;;;;5057807;28;20769;-69
2022/07/26 11:33:49;;;;;;;3.70;0.70;;;;;;;;;;5055801;28;20668;-71
2022/07/26 11:36:15;;;;;;;3.70;0.45;;;;;;;;;;5050680;28;20569;-71
2022/07/26 11:38:50;;;;;;;2.83;0.57;;;;;;;;;;5057201;28;20796;-69
2022/07/26 11:41:27;;;;;;;3.00;0.77;;;;;;;;;;5050944;28;20188;-70
2022/07/26 11:43:55;;;;;;;3.35;0.70;;;;;;;;;;5052804;28;20176;-69
2022/07/26 11:46:21;;;;;;;4.85;0.65;;;;;;;;;;5049904;28;20667;-70
2022/07/26 11:48:48;;;;;;;4.78;0.88;;;;;;;;;;5042791;28;20269;-72
2022/07/26 11:51:19;;;;;;;2.20;0.55;;;;;;;;;;5053020;28;20308;-70
2022/07/26 11:53:45;;;;;;;8.02;1.35;;;;;;;;;;5053480;28;20279;-69
2022/07/26 11:56:15;;;;;;;4.57;1.00;;;;;;;;;;5052813;28;20602;-76
2022/07/26 11:58:43;;;;;;;5.18;0.80;;;;;;;;;;5052663;28;20177;-70
2022/07/26 12:01:10;;;;;;;5.75;0.82;;;;;;;;;;5051184;28;20228;-73
2022/07/26 12:03:37;;;;;;;5.45;1.00;;;;;;;;;;5052286;28;20199;-70
2022/07/26 12:06:08;;;;;;;2.72;0.80;;;;;;;;;;5052040;28;20185;-69
2022/07/26 12:08:38;;;;;;;2.58;0.70;;;;;;;;;;5051394;28;20205;-69
2022/07/26 12:11:04;;;;;;;3.45;0.80;;;;;;;;;;5052623;28;20258;-69
2022/07/26 12:13:29;;;;;;;4.68;0.77;;;;;;;;;;5054195;28;20186;-70
2022/07/26 12:15:55;;;;;;;3.25;0.90;;;;;;;;;;5055484;28;20204;-68
2022/07/26 12:18:22;;;;;;;2.72;0.68;;;;;;;;;;5051044;28;20593;-68
2022/07/26 12:21:03;;;;;;;2.47;0.55;;;;;;;;;;5047482;28;20296;-69
2022/07/26 12:23:40;;;;;;;4.25;0.63;;;;;;;;;;5052094;28;20220;-70
2022/07/26 12:26:21;;;;;;;4.20;0.70;;;;;;;;;;5058831;28;20284;-70
2022/07/26 12:28:46;;;;;;;8.27;1.10;;;;;;;;;;5053996;28;20204;-70
2022/07/26 12:31:30;;;;;;;3.60;1.42;;;;;;;;;;4700933;28;10000570;-70
2022/07/26 12:33:56;;;;;;;3.97;1.17;;;;;;;;;;5054606;28;20185;-68
2022/07/26 12:36:22;;;;;;;5.10;1.05;;;;;;;;;;5047118;28;20684;-68
2022/07/26 12:38:48;;;;;;;6.28;1.23;;;;;;;;;;5049880;28;20180;-75
2022/07/26 12:41:30;;;;;;;7.28;1.27;;;;;;;;;;5054399;28;20185;-69
2022/07/26 12:43:56;;;;;;;6.90;1.42;;;;;;;;;;5051207;28;20230;-70
2022/07/26 12:46:21;;;;;;;8.88;1.42;;;;;;;;;;5048107;28;20197;-70
2022/07/26 12:48:46;;;;;;;4.72;1.20;;;;;;;;;;5047070;28;20251;-70
2022/07/26 12:51:12;;;;;;;11.18;1.55;;;;;;;;;;5056585;28;20796;-68
2022/07/26 12:53:37;;;;;;;9.35;1.20;;;;;;;;;;5054049;28;20639;-68
2022/07/26 12:56:03;;;;;;;7.75;1.40;;;;;;;;;;5050483;28;20188;-68
2022/07/26 12:58:28;;;;;;;7.57;1.67;;;;;;;;;;5045658;28;20424;-68
2022/07/26 13:00:53;;;;;;;5.72;1.60;;;;;;;;;;5062180;28;20244;-68
2022/07/26 13:03:19;;;;;;;7.80;1.50;;;;;;;;;;5057596;28;20698;-69
2022/07/26 13:05:44;;;;;;;6.85;1.27;;;;;;;;;;5062250;28;20185;-69
2022/07/26 13:08:09;;;;;;;3.08;1.02;;;;;;;;;;5057157;28;20770;-72
2022/07/26 13:10:35;;;;;;;3.20;0.75;;;;;;;;;;5051883;28;20234;-68
2022/07/26 13:13:00;;;;;;;6.05;0.73;;;;;;;;;;5056037;28;20251;-68
2022/07/26 13:15:26;;;;;;;4.88;1.13;;;;;;;;;;4701859;28;10000509;-67
2022/07/26 13:17:51;;;;;;;4.95;1.08;;;;;;;;;;5049135;28;20653;-74
2022/07/26 13:20:16;;;;;;;6.47;0.90;;;;;;;;;;5046935;28;20189;-72
2022/07/26 13:22:42;;;;;;;3.88;0.90;;;;;;;;;;5056949;28;20193;-69
2022/07/26 13:25:08;;;;;;;4.35;0.95;;;;;;;;;;5052841;28;20237;-69
2022/07/26 13:27:33;;;;;;;5.90;1.40;;;;;;;;;;5047730;28;20205;-71
2022/07/26 13:29:58;;;;;;;6.28;1.48;;;;;;;;;;5043826;28;20691;-77
2022/07/26 13:32:24;;;;;;;7.40;1.33;;;;;;;;;;5044331;28;20216;-72
2022/07/26 13:34:49;;;;;;;8.63;1.73;;;;;;;;;;5047379;28;20232;-70
2022/07/26 13:37:14;;;;;;;7.32;1.75;;;;;;;;;;5055141;28;20246;-70
2022/07/26 13:39:40;;;;;;;6.10;1.42;;;;;;;;;;5051076;28;20185;-74
2022/07/26 13:42:05;;;;;;;4.80;1.27;;;;;;;;;;5059586;28;20195;-70
2022/07/26 13:44:30;;;;;;;3.08;0.95;;;;;;;;;;5056111;28;20586;-70
2022/07/26 13:46:56;;;;;;;6.22;1.50;;;;;;;;;;5057025;28;20186;-69
2022/07/26 13:49:21;;;;;;;4.82;1.13;;;;;;;;;;5057611;28;20216;-70
2022/07/26 13:51:56;;;;;;;5.38;1.40;;;;;;;;;;5052078;28;20193;-69
2022/07/26 13:54:25;;;;;;;5.15;1.15;;;;;;;;;;5052877;28;20200;-67
2022/07/26 13:56:51;;;;;;;7.22;1.30;;;;;;;;;;5059736;28;20609;-69
2022/07/26 13:59:20;;;;;;;6.47;1.15;;;;;;;;;;5050495;28;20839;-69
2022/07/26 14:01:45;;;;;;;6.30;1.60;;;;;;;;;;5058805;28;20632;-69
2022/07/26 14:04:11;;;;;;;4.97;1.00;;;;;;;;;;5053553;28;20191;-68
2022/07/26 14:06:38;;;;;;;7.03;1.42;;;;;;;;;;5046833;28;20177;-68
2022/07/26 14:09:04;;;;;;;8.40;1.33;;;;;;;;;;5050642;28;20227;-69
2022/07/26 14:11:29;;;;;;;4.78;1.65;;;;;;;;;;5046428;28;20186;-73
2022/07/26 14:13:55;;;;;;;10.57;1.58;;;;;;;;;;5046024;28;20189;-75
2022/07/26 14:16:21;;;;;;;4.53;1.30;;;;;;;;;;5050773;28;20189;-69
2022/07/26 14:18:48;;;;;;;6.10;1.33;;;;;;;;;;5055876;28;20211;-70
2022/07/26 14:21:13;;;;;;;7.03;1.35;;;;;;;;;;5045204;28;20177;-68
2022/07/26 14:23:39;;;;;;;6.03;1.27;;;;;;;;;;5060224;28;20199;-69
2022/07/26 14:26:04;;;;;;;6.47;1.33;;;;;;;;;;5066610;28;20184;-69
2022/07/26 14:28:29;;;;;;;8.20;1.63;;;;;;;;;;5062734;28;20278;-69
2022/07/26 14:30:55;;;;;;;4.45;1.02;;;;;;;;;;5056891;28;20239;-69
2022/07/26 14:33:20;;;;;;;5.18;1.25;;;;;;;;;;5063333;28;20176;-69
2022/07/26 14:35:46;;;;;;;5.57;1.38;;;;;;;;;;5050797;28;20181;-69
2022/07/26 14:38:12;;;;;;;7.07;1.30;;;;;;;;;;5053735;28;20271;-69
2022/07/26 14:40:38;;;;;;;3.92;1.05;;;;;;;;;;4702030;28;10000414;-69
2022/07/26 14:43:04;;;;;;;5.50;1.23;;;;;;;;;;5060814;28;20188;-69